Time;durP1;ratioP1;P1;durP2;ratioP2;P2;SDS_P1;SDS_P2;PMS_P1;PMS_P2;Temp;Humidity;BMP_temperature;BMP_pressure;BME280_temperature;BME280_humidity;BME280_pressure;Samples;Min_cycle;Max_cycle;Signal;HPM_P1;HPM_P2
2022/03/11 00:01:51;;;;;;;66.00;24.17;;;;;;;9.80;100.00;100407.25;5050217;28;20048;-88
2022/03/11 00:04:35;;;;;;;56.65;21.67;;;;;;;10.11;100.00;100395.53;5051647;28;20049;-88
2022/03/11 00:07:02;;;;;;;63.35;20.58;;;;;;;10.32;100.00;100384.19;5052556;28;20051;-89
2022/03/11 00:09:29;;;;;;;58.28;18.88;;;;;;;10.08;100.00;100338.97;5045165;28;20505;-86
2022/03/11 00:11:55;;;;;;;65.05;23.90;;;;;;;9.91;100.00;100347.50;5044888;28;20140;-89
2022/03/11 00:14:24;;;;;;;69.05;23.98;;;;;;;9.50;100.00;100344.78;5052176;28;20142;-88
2022/03/11 00:16:50;;;;;;;68.80;21.38;;;;;;;9.83;100.00;100355.69;5043237;28;20124;-89
2022/03/11 00:19:17;;;;;;;56.53;20.45;;;;;;;9.98;100.00;100361.19;5033498;28;20041;-89
2022/03/11 00:21:44;;;;;;;59.50;21.20;;;;;;;10.11;100.00;100377.22;5050915;28;20055;-89
2022/03/11 00:24:11;;;;;;;56.58;20.55;;;;;;;10.14;100.00;100338.69;5051855;28;20426;-88
2022/03/11 00:26:38;;;;;;;61.08;23.02;;;;;;;9.79;100.00;100342.78;5051474;28;20045;-89
2022/03/11 00:29:03;;;;;;;71.82;20.58;;;;;;;10.22;100.00;100359.31;5053166;28;20115;-88
2022/03/11 00:31:31;;;;;;;68.18;23.30;;;;;;;10.05;100.00;100362.63;5046954;28;20414;-89
2022/03/11 00:33:59;;;;;;;67.18;23.75;;;;;;;10.16;100.00;100373.50;5053397;28;20055;-89
2022/03/11 00:36:25;;;;;;;67.57;22.33;;;;;;;10.13;100.00;100362.31;5053599;28;20407;-88
2022/03/11 00:38:52;;;;;;;64.20;23.15;;;;;;;9.82;100.00;100346.13;5037493;28;20376;-90
2022/03/11 00:41:19;;;;;;;58.88;21.73;;;;;;;9.81;100.00;100354.00;5040481;28;20136;-88
2022/03/11 00:43:46;;;;;;;52.47;19.52;;;;;;;10.28;100.00;100366.91;5034275;28;20061;-89
2022/03/11 00:46:12;;;;;;;56.63;20.77;;;;;;;10.30;100.00;100353.75;5053387;28;20048;-89
2022/03/11 00:48:39;;;;;;;45.58;18.40;;;;;;;10.27;100.00;100342.50;5052187;28;20073;-89
2022/03/11 00:51:06;;;;;;;62.60;21.10;;;;;;;9.86;100.00;100337.25;5051456;28;20048;-89
2022/03/11 00:53:33;;;;;;;73.65;22.50;;;;;;;10.07;100.00;100340.75;5037773;28;20095;-89
2022/03/11 00:56:00;;;;;;;53.35;20.75;;;;;;;10.18;100.00;100327.22;5031805;28;20543;-89
2022/03/11 00:58:26;;;;;;;52.20;18.98;;;;;;;10.40;100.00;100313.22;5043589;28;20390;-89
2022/03/11 01:00:53;;;;;;;75.47;26.58;;;;;;;9.92;100.00;100306.53;5047994;28;20143;-88
2022/03/11 01:03:20;;;;;;;67.25;22.58;;;;;;;10.03;100.00;100336.53;5032684;28;20049;-89
2022/03/11 01:05:47;;;;;;;71.85;24.88;;;;;;;9.85;100.00;100319.84;5031784;28;20085;-88
2022/03/11 01:08:14;;;;;;;60.53;20.58;;;;;;;10.19;100.00;100321.03;5031200;28;20042;-89
2022/03/11 01:10:41;;;;;;;61.13;22.58;;;;;;;10.16;100.00;100333.41;5057029;28;20049;-89
2022/03/11 01:13:08;;;;;;;57.95;20.73;;;;;;;10.00;100.00;100326.19;5051180;28;20053;-89
2022/03/11 01:15:35;;;;;;;58.15;20.48;;;;;;;9.57;100.00;100327.97;5050566;28;20053;-89
2022/03/11 01:18:02;;;;;;;64.05;21.60;;;;;;;9.91;100.00;100317.91;5051706;28;20056;-89
2022/03/11 01:20:29;;;;;;;57.42;20.17;;;;;;;10.15;100.00;100329.94;5051165;28;20049;-88
2022/03/11 01:22:55;;;;;;;67.63;20.30;;;;;;;10.23;100.00;100314.78;5046453;28;20124;-89
2022/03/11 01:25:22;;;;;;;52.67;18.95;;;;;;;10.38;100.00;100312.44;5051068;28;20419;-89
2022/03/11 01:27:49;;;;;;;65.20;22.65;;;;;;;9.80;100.00;100281.72;5051786;28;20075;-87
2022/03/11 01:30:16;;;;;;;69.35;23.92;;;;;;;9.67;100.00;100320.63;5044969;28;20124;-88
2022/03/11 01:32:43;;;;;;;69.43;22.77;;;;;;;9.57;100.00;100309.66;5048295;28;20049;-89
2022/03/11 01:35:11;;;;;;;63.42;22.05;;;;;;;10.29;100.00;100323.25;5049871;28;20052;-88
2022/03/11 01:37:38;;;;;;;59.88;20.77;;;;;;;10.18;100.00;100303.66;5030705;28;20100;-88
2022/03/11 01:40:05;;;;;;;60.72;21.98;;;;;;;10.12;100.00;100316.16;5036120;28;20100;-87
2022/03/11 01:42:34;;;;;;;68.63;22.15;;;;;;;9.90;100.00;100298.75;5033074;28;20063;-88
2022/03/11 01:45:02;;;;;;;61.13;21.65;;;;;;;10.14;100.00;100314.31;5030755;28;20045;-89
2022/03/11 01:47:29;;;;;;;64.88;22.88;;;;;;;10.25;100.00;100302.50;5034416;28;20047;-88
2022/03/11 01:49:56;;;;;;;57.90;20.75;;;;;;;10.29;100.00;100292.72;5050827;28;20049;-88
2022/03/11 01:52:23;;;;;;;74.72;23.52;;;;;;;9.86;100.00;100299.78;5040124;28;20049;-88
2022/03/11 01:54:50;;;;;;;72.82;25.92;;;;;;;9.71;100.00;100284.75;5049763;28;20056;-88
2022/03/11 01:57:17;;;;;;;65.63;23.58;;;;;;;9.97;100.00;100258.34;5051227;28;20535;-89
2022/03/11 01:59:44;;;;;;;66.97;23.58;;;;;;;10.33;100.00;100278.63;5048945;28;20475;-89
2022/03/11 02:02:11;;;;;;;59.53;25.13;;;;;;;9.69;100.00;100242.97;5041839;28;20833;-88
2022/03/11 02:04:39;;;;;;;57.67;21.90;;;;;;;9.78;100.00;100234.75;5043658;28;20049;-88
2022/03/11 02:07:07;;;;;;;70.95;26.10;;;;;;;9.66;100.00;100249.16;5038089;28;20045;-88
2022/03/11 02:09:34;;;;;;;70.70;27.00;;;;;;;9.87;100.00;100270.94;5049870;28;20051;-88
2022/03/11 02:12:00;;;;;;;77.82;25.73;;;;;;;10.10;100.00;100263.06;5037544;28;20049;-88
2022/03/11 02:14:27;;;;;;;68.53;28.00;;;;;;;10.00;100.00;100283.50;5034527;28;20045;-88
2022/03/11 02:16:54;;;;;;;67.85;26.70;;;;;;;10.36;100.00;100260.19;5050877;28;20048;-88
2022/03/11 02:19:22;;;;;;;67.63;25.05;;;;;;;10.27;100.00;100263.19;5051074;28;20395;-88
2022/03/11 02:21:52;;;;;;;67.55;28.15;;;;;;;10.34;100.00;100263.75;5040229;28;20128;-88
2022/03/11 02:24:19;;;;;;;70.70;28.13;;;;;;;10.18;100.00;100267.03;5048236;28;20418;-89
2022/03/11 02:26:46;;;;;;;79.03;29.58;;;;;;;10.23;100.00;100275.53;5050621;28;20049;-89
2022/03/11 02:29:13;;;;;;;63.42;24.52;;;;;;;10.04;100.00;100238.03;5049042;28;20060;-89
2022/03/11 02:31:40;;;;;;;65.35;27.25;;;;;;;9.99;100.00;100212.06;5042415;28;20053;-89
2022/03/11 02:34:06;;;;;;;76.75;33.03;;;;;;;10.12;100.00;100237.66;5030570;28;20073;-89
2022/03/11 02:36:33;;;;;;;86.20;33.20;;;;;;;9.84;100.00;100210.09;5044710;28;20056;-89
2022/03/11 02:39:00;;;;;;;73.22;30.00;;;;;;;9.73;100.00;100197.47;5034405;28;20395;-89
2022/03/11 02:41:27;;;;;;;73.25;31.48;;;;;;;9.97;100.00;100219.13;5038214;28;20059;-89
2022/03/11 02:43:54;;;;;;;91.90;34.97;;;;;;;9.74;100.00;100230.56;5055369;28;20140;-89
2022/03/11 02:46:21;;;;;;;86.45;35.35;;;;;;;9.79;100.00;100243.41;5054372;28;20049;-89
2022/03/11 02:48:48;;;;;;;81.72;34.00;;;;;;;10.10;100.00;100239.50;5054547;28;20045;-88
2022/03/11 02:51:15;;;;;;;101.25;36.78;;;;;;;9.89;100.00;100242.13;5053932;28;20483;-89
2022/03/11 02:53:42;;;;;;;88.30;37.17;;;;;;;9.87;100.00;100233.50;5055108;28;20055;-89
2022/03/11 02:56:10;;;;;;;89.90;37.30;;;;;;;9.83;100.00;100231.94;5047052;28;20052;-87
2022/03/11 02:58:38;;;;;;;84.80;35.10;;;;;;;9.66;100.00;100233.47;5042017;28;20049;-89
2022/03/11 03:01:04;;;;;;;90.65;39.50;;;;;;;9.34;100.00;100215.69;5048543;28;20529;-89
2022/03/11 03:03:31;;;;;;;103.25;40.78;;;;;;;9.78;100.00;100218.22;5034611;28;20088;-88
2022/03/11 03:05:58;;;;;;;85.43;35.75;;;;;;;9.89;100.00;100224.66;5033257;28;20406;-89
2022/03/11 03:08:25;;;;;;;107.43;43.78;;;;;;;9.47;100.00;100222.97;5033208;28;20137;-89
2022/03/11 03:10:52;;;;;;;93.63;40.83;;;;;;;9.78;100.00;100216.44;5034225;28;20051;-89
2022/03/11 03:13:19;;;;;;;107.35;40.65;;;;;;;9.81;100.00;100198.00;5033867;28;20053;-88
2022/03/11 03:15:45;;;;;;;87.03;38.80;;;;;;;10.05;100.00;100200.47;5040801;28;20052;-89
2022/03/11 03:18:12;;;;;;;70.38;32.70;;;;;;;10.30;100.00;100178.44;5054206;28;20053;-89
2022/03/11 03:20:39;;;;;;;101.85;42.63;;;;;;;10.21;100.00;100203.25;5032825;28;20068;-89
2022/03/11 03:23:06;;;;;;;87.57;39.75;;;;;;;10.13;100.00;100226.28;5038269;28;20475;-90
2022/03/11 03:25:33;;;;;;;91.75;40.58;;;;;;;10.30;100.00;100213.31;5054569;28;20132;-89
2022/03/11 03:28:00;;;;;;;99.07;41.35;;;;;;;10.33;100.00;100199.28;5052983;28;20049;-89
2022/03/11 03:30:26;;;;;;;113.47;45.30;;;;;;;10.19;100.00;100212.94;5048141;28;20045;-90
2022/03/11 03:32:53;;;;;;;104.88;43.22;;;;;;;10.16;100.00;100195.59;5052473;28;20512;-89
2022/03/11 03:35:20;;;;;;;102.05;47.92;;;;;;;9.87;100.00;100199.50;5053130;28;20392;-89
2022/03/11 03:37:47;;;;;;;99.40;47.70;;;;;;;9.82;100.00;100198.84;5052023;28;20049;-89
2022/03/11 03:40:14;;;;;;;106.43;50.67;;;;;;;9.69;100.00;100196.75;5053635;28;20067;-90
2022/03/11 03:42:47;;;;;;;109.90;48.88;;;;;;;9.61;100.00;100193.59;5052715;28;20088;-90
2022/03/11 03:45:15;;;;;;;104.03;47.03;;;;;;;10.23;100.00;100183.97;5053094;28;20120;-89
2022/03/11 03:47:42;;;;;;;110.10;48.63;;;;;;;9.98;100.00;100205.09;5053040;28;20106;-90
2022/03/11 03:50:09;;;;;;;116.43;51.38;;;;;;;10.11;100.00;100175.78;5052956;28;20041;-90
2022/03/11 03:52:36;;;;;;;111.65;49.05;;;;;;;10.31;100.00;100186.25;5035023;28;20387;-90
2022/03/11 03:55:03;;;;;;;120.15;52.05;;;;;;;9.66;100.00;100178.59;5032839;28;20064;-88
2022/03/11 03:57:31;;;;;;;115.88;48.13;;;;;;;9.78;100.00;100173.75;5032966;28;20590;-87
2022/03/11 03:59:58;;;;;;;103.97;44.15;;;;;;;10.19;100.00;100171.91;5046859;28;20052;-87
2022/03/11 04:02:25;;;;;;;115.40;46.10;;;;;;;10.02;100.00;100169.19;5037178;28;20049;-87
2022/03/11 04:04:52;;;;;;;104.43;44.15;;;;;;;10.24;100.00;100171.72;5033898;28;20053;-89
2022/03/11 04:07:18;;;;;;;110.32;47.88;;;;;;;9.92;100.00;100154.88;5036037;28;20518;-89
2022/03/11 04:09:45;;;;;;;98.95;42.47;;;;;;;10.48;100.00;100166.31;5052410;28;20045;-89
2022/03/11 04:12:12;;;;;;;86.38;42.00;;;;;;;10.20;100.00;100139.63;5034903;28;20136;-90
2022/03/11 04:14:39;;;;;;;98.40;44.67;;;;;;;10.09;100.00;100139.25;5037140;28;20049;-89
2022/03/11 04:17:05;;;;;;;116.30;44.85;;;;;;;9.56;100.00;100171.19;5052462;28;20716;-90
2022/03/11 04:19:33;;;;;;;91.35;42.97;;;;;;;10.14;100.00;100165.19;5046066;28;20042;-90
2022/03/11 04:22:00;;;;;;;102.53;44.90;;;;;;;10.25;100.00;100149.84;5040080;28;20055;-89
2022/03/11 04:24:27;;;;;;;121.53;48.33;;;;;;;9.45;100.00;100138.53;5032374;28;20085;-90
2022/03/11 04:26:54;;;;;;;101.88;45.33;;;;;;;9.56;100.00;100155.53;5033785;28;20053;-90
2022/03/11 04:29:23;;;;;;;107.55;45.38;;;;;;;9.76;100.00;100118.91;5031524;28;20068;-90
2022/03/11 04:31:50;;;;;;;107.95;45.22;;;;;;;9.92;100.00;100141.78;5048445;28;20063;-90
2022/03/11 04:34:17;;;;;;;104.38;42.95;;;;;;;9.80;100.00;100099.56;5050949;28;20063;-87
2022/03/11 04:36:43;;;;;;;107.72;44.53;;;;;;;9.78;100.00;100111.84;5052161;28;20052;-88
2022/03/11 04:39:10;;;;;;;102.95;43.92;;;;;;;9.90;100.00;100128.78;5051910;28;20043;-89
2022/03/11 04:41:37;;;;;;;89.65;39.75;;;;;;;9.98;100.00;100100.50;5042540;28;20050;-87
2022/03/11 04:44:04;;;;;;;89.10;40.35;;;;;;;10.20;100.00;100117.84;5031480;28;20065;-89
2022/03/11 04:46:31;;;;;;;92.10;41.35;;;;;;;9.97;100.00;100111.88;5039926;28;20053;-87
2022/03/11 04:48:58;;;;;;;89.38;41.03;;;;;;;9.60;100.00;100123.97;5049489;28;20046;-88
2022/03/11 04:51:25;;;;;;;107.75;42.58;;;;;;;9.63;100.00;100089.00;5033396;28;20432;-88
2022/03/11 04:53:52;;;;;;;93.13;40.47;;;;;;;9.86;100.00;100117.59;5051101;28;20049;-88
2022/03/11 04:56:19;;;;;;;96.70;39.35;;;;;;;9.94;100.00;100148.63;5048910;28;20049;-88
2022/03/11 04:58:46;;;;;;;93.55;42.17;;;;;;;9.89;100.00;100132.28;5051154;28;20107;-88
2022/03/11 05:01:13;;;;;;;96.03;42.72;;;;;;;9.76;100.00;100136.38;5052105;28;20061;-88
2022/03/11 05:03:40;;;;;;;97.53;42.78;;;;;;;9.70;100.00;100145.31;5052162;28;20045;-88
2022/03/11 05:06:09;;;;;;;90.90;41.42;;;;;;;9.62;100.00;100157.88;5051126;28;20060;-89
2022/03/11 05:08:36;;;;;;;94.93;42.28;;;;;;;9.52;100.00;100107.75;5051772;28;20143;-91
2022/03/11 05:11:04;;;;;;;102.82;42.50;;;;;;;9.57;100.00;100152.00;5033060;28;20224;-88
2022/03/11 05:13:31;;;;;;;110.35;41.30;;;;;;;9.71;100.00;100126.13;5039572;28;20459;-90
2022/03/11 05:15:58;;;;;;;111.97;44.13;;;;;;;9.64;100.00;100151.66;5050592;28;20053;-90
2022/03/11 05:18:25;;;;;;;86.93;36.97;;;;;;;9.84;100.00;100124.69;5050390;28;20049;-88
2022/03/11 05:20:52;;;;;;;107.32;41.17;;;;;;;9.85;100.00;100136.81;5048112;28;20128;-88
2022/03/11 05:23:19;;;;;;;103.25;42.85;;;;;;;9.88;100.00;100133.22;5043003;28;20080;-88
2022/03/11 05:25:46;;;;;;;90.97;41.58;;;;;;;9.63;100.00;100129.06;5050097;28;20131;-87
2022/03/11 05:28:12;;;;;;;95.93;40.88;;;;;;;9.87;100.00;100124.50;5050567;28;20057;-89
2022/03/11 05:30:40;;;;;;;98.97;41.53;;;;;;;9.78;100.00;100103.16;5049798;28;20049;-90
2022/03/11 05:33:12;;;;;;;91.13;41.45;;;;;;;9.62;100.00;100114.28;5050524;28;20105;-90
2022/03/11 05:35:41;;;;;;;99.85;42.25;;;;;;;9.98;100.00;100154.56;5050169;28;20732;-90
2022/03/11 05:38:07;;;;;;;102.30;41.85;;;;;;;9.70;100.00;100124.41;5047717;28;20141;-89
2022/03/11 05:40:34;;;;;;;105.05;45.40;;;;;;;9.86;100.00;100138.53;5049163;28;20064;-90
2022/03/11 05:43:01;;;;;;;105.20;42.00;;;;;;;9.82;100.00;100125.63;5045368;28;20475;-90
2022/03/11 05:45:28;;;;;;;96.35;42.85;;;;;;;9.68;100.00;100128.84;5047317;28;20045;-87
2022/03/11 05:47:55;;;;;;;107.07;44.72;;;;;;;9.76;100.00;100129.38;5051608;28;20136;-90
2022/03/11 05:50:22;;;;;;;95.28;42.13;;;;;;;9.77;100.00;100140.69;5050407;28;20493;-89
2022/03/11 05:52:49;;;;;;;100.82;41.97;;;;;;;9.61;100.00;100114.34;5043770;28;20046;-90
2022/03/11 05:55:17;;;;;;;102.05;41.90;;;;;;;9.20;100.00;100102.16;5050355;28;20395;-88
2022/03/11 05:57:44;;;;;;;107.85;42.95;;;;;;;9.48;100.00;100114.03;5049585;28;20053;-87
2022/03/11 06:00:11;;;;;;;95.70;43.97;;;;;;;9.46;100.00;100106.25;5049930;28;20053;-88
2022/03/11 06:02:39;;;;;;;97.90;44.08;;;;;;;9.43;100.00;100113.38;5051625;28;20041;-87
2022/03/11 06:05:10;;;;;;;108.13;42.08;;;;;;;9.58;100.00;100109.25;5049808;28;20106;-89
2022/03/11 06:07:38;;;;;;;92.40;42.17;;;;;;;9.65;100.00;100105.44;5048889;28;20597;-89
2022/03/11 06:10:05;;;;;;;107.00;42.97;;;;;;;9.48;100.00;100104.44;5049628;28;20431;-89
2022/03/11 06:12:32;;;;;;;98.72;43.45;;;;;;;9.36;100.00;100106.72;5051084;28;20059;-89
2022/03/11 06:14:59;;;;;;;103.55;41.60;;;;;;;9.60;100.00;100097.84;5050861;28;20040;-88
2022/03/11 06:17:25;;;;;;;109.20;41.80;;;;;;;9.74;100.00;100083.28;5047966;28;20104;-87
2022/03/11 06:19:52;;;;;;;98.22;38.58;;;;;;;9.62;100.00;100053.34;5055287;28;20141;-88
2022/03/11 06:22:20;;;;;;;105.05;41.53;;;;;;;9.25;100.00;100055.78;5054108;28;20053;-88
2022/03/11 06:24:46;;;;;;;92.78;40.50;;;;;;;9.42;100.00;100075.09;5051362;28;20053;-88
2022/03/11 06:27:13;;;;;;;96.97;41.15;;;;;;;9.71;100.00;100112.22;5045569;28;20067;-89
2022/03/11 06:29:40;;;;;;;104.55;40.03;;;;;;;9.73;100.00;100113.81;5053388;28;20047;-88
2022/03/11 06:32:07;;;;;;;91.45;38.70;;;;;;;9.59;100.00;100134.50;5050502;28;20059;-88
2022/03/11 06:34:35;;;;;;;101.85;41.17;;;;;;;10.09;100.00;100128.78;5049357;28;20081;-90
2022/03/11 06:37:02;;;;;;;101.57;40.78;;;;;;;9.98;100.00;100110.97;5053776;28;20052;-87
2022/03/11 06:39:28;;;;;;;106.10;43.65;;;;;;;9.64;100.00;100116.84;5051132;28;20085;-90
2022/03/11 06:41:55;;;;;;;91.50;39.90;;;;;;;9.40;100.00;100114.38;5047073;28;20071;-88
2022/03/11 06:44:22;;;;;;;95.32;41.13;;;;;;;9.53;100.00;100111.25;5042575;28;20526;-88
2022/03/11 06:46:49;;;;;;;97.25;41.10;;;;;;;9.83;100.00;100128.19;5051839;28;20045;-88
2022/03/11 06:49:16;;;;;;;100.35;40.00;;;;;;;9.80;100.00;100120.47;5054116;28;20059;-89
2022/03/11 06:51:43;;;;;;;97.18;39.22;;;;;;;9.64;100.00;100119.47;5052367;28;20516;-89
2022/03/11 06:54:09;;;;;;;106.90;39.72;;;;;;;9.31;100.00;100081.66;5053341;28;20427;-91
2022/03/11 06:56:36;;;;;;;93.93;39.20;;;;;;;9.91;100.00;100130.47;5054396;28;20057;-91
2022/03/11 06:59:04;;;;;;;88.07;35.80;;;;;;;10.09;100.00;100120.94;5054396;28;20132;-90
2022/03/11 07:01:31;;;;;;;92.05;40.80;;;;;;;9.78;100.00;100124.09;5046922;28;20051;-90
2022/03/11 07:04:00;;;;;;;98.95;38.90;;;;;;;9.98;100.00;100129.25;5055119;28;20478;-91
2022/03/11 07:06:27;;;;;;;95.15;40.85;;;;;;;9.92;100.00;100106.00;5050084;28;20045;-89
2022/03/11 07:08:54;;;;;;;92.25;38.63;;;;;;;10.01;100.00;100138.75;5053517;28;20501;-92
2022/03/11 07:11:21;;;;;;;90.18;39.25;;;;;;;10.10;100.00;100112.19;5050028;28;20051;-91
2022/03/11 07:13:48;;;;;;;84.43;36.63;;;;;;;10.18;100.00;100133.63;5051521;28;20052;-91
2022/03/11 07:16:14;;;;;;;93.32;39.83;;;;;;;9.94;100.00;100130.31;5048843;28;20810;-90
2022/03/11 07:18:41;;;;;;;83.50;36.97;;;;;;;10.17;100.00;100125.84;5054606;28;20056;-91
2022/03/11 07:21:09;;;;;;;96.60;38.88;;;;;;;9.90;100.00;100110.47;5050733;28;20055;-90
2022/03/11 07:23:35;;;;;;;99.60;39.30;;;;;;;9.52;100.00;100117.38;5048814;28;20586;-91
2022/03/11 07:26:02;;;;;;;86.43;40.00;;;;;;;9.66;100.00;100128.06;5053300;28;20053;-91
2022/03/11 07:28:29;;;;;;;91.80;38.75;;;;;;;9.81;100.00;100113.47;5053707;28;20765;-91
2022/03/11 07:30:56;;;;;;;96.65;39.33;;;;;;;9.75;100.00;100117.22;5049236;28;20072;-92
2022/03/11 07:33:23;;;;;;;99.30;40.42;;;;;;;9.87;100.00;100105.38;5054868;28;20060;-92
2022/03/11 07:35:50;;;;;;;99.32;39.50;;;;;;;9.90;100.00;100107.84;5043164;28;20120;-93
2022/03/11 07:38:17;;;;;;;89.53;39.45;;;;;;;9.73;100.00;100094.69;5054576;28;20135;-93
2022/03/11 07:40:44;;;;;;;80.50;36.85;;;;;;;9.83;100.00;100090.75;5049250;28;20124;-92
2022/03/11 07:43:13;;;;;;;94.05;40.42;;;;;;;9.98;100.00;100097.03;5050070;28;20394;-91
2022/03/11 07:45:40;;;;;;;97.78;37.95;;;;;;;9.86;100.00;100078.38;5051770;28;20049;-91
2022/03/11 07:48:07;;;;;;;92.13;43.17;;;;;;;9.49;100.00;100092.22;5053710;28;20057;-92
2022/03/11 07:50:35;;;;;;;89.72;39.20;;;;;;;9.63;100.00;100083.75;5050305;28;20053;-92
2022/03/11 07:53:02;;;;;;;95.13;40.20;;;;;;;9.91;100.00;100096.47;5044485;28;20045;-91
2022/03/11 07:55:29;;;;;;;93.18;37.28;;;;;;;10.20;100.00;100099.53;5049199;28;20135;-91
2022/03/11 07:57:56;;;;;;;84.05;37.30;;;;;;;10.15;100.00;100091.88;5051946;28;20533;-92
2022/03/11 08:00:24;;;;;;;78.50;38.42;;;;;;;9.87;100.00;100093.13;5054485;28;20053;-91
2022/03/11 08:02:50;;;;;;;86.97;37.88;;;;;;;9.92;100.00;100090.31;5051490;28;20052;-91
2022/03/11 08:05:18;;;;;;;82.07;38.30;;;;;;;9.69;100.00;100079.13;5038670;28;20061;-89
2022/03/11 08:07:49;;;;;;;94.53;39.03;;;;;;;9.85;100.00;100115.06;5036365;28;20057;-91
2022/03/11 08:10:18;;;;;;;96.93;39.92;;;;;;;9.97;100.00;100085.75;5037991;28;20050;-92
2022/03/11 08:12:45;;;;;;;110.35;43.20;;;;;;;9.85;100.00;100083.69;5052003;28;20053;-92
2022/03/11 08:15:12;;;;;;;92.50;41.63;;;;;;;9.91;100.00;100088.63;5053960;28;20045;-91
2022/03/11 08:17:40;;;;;;;86.95;38.72;;;;;;;9.80;100.00;100091.72;5053398;28;20099;-91
2022/03/11 08:20:09;;;;;;;105.75;43.60;;;;;;;10.16;100.00;100095.34;5054488;28;20085;-91
2022/03/11 08:22:37;;;;;;;101.80;42.28;;;;;;;10.04;100.00;100096.78;5050230;28;20072;-92
2022/03/11 08:25:05;;;;;;;94.57;40.58;;;;;;;9.81;100.00;100075.13;5037929;28;20049;-92
2022/03/11 08:27:31;;;;;;;94.93;37.78;;;;;;;10.10;100.00;100062.47;5036456;28;20072;-92
2022/03/11 08:29:58;;;;;;;90.93;38.78;;;;;;;10.05;100.00;100070.53;5053631;28;20116;-92
2022/03/11 08:32:28;;;;;;;102.32;40.30;;;;;;;10.04;100.00;100095.00;5056431;28;20049;-93
2022/03/11 08:34:55;;;;;;;77.40;36.50;;;;;;;10.58;100.00;100019.22;5055122;28;20127;-89
2022/03/11 08:37:27;;;;;;;96.65;38.50;;;;;;;10.25;100.00;100043.47;5053326;28;20080;-91
2022/03/11 08:40:00;;;;;;;89.85;41.30;;;;;;;10.39;100.00;100042.84;5054092;28;20080;-92
2022/03/11 08:42:27;;;;;;;90.75;40.00;;;;;;;10.57;100.00;100045.47;5053603;28;20060;-85
2022/03/11 08:44:54;;;;;;;91.38;38.63;;;;;;;10.63;100.00;100059.09;5051806;28;20085;-85
2022/03/11 08:47:21;;;;;;;105.32;38.88;;;;;;;10.76;100.00;100033.16;5026676;28;20075;-85
2022/03/11 08:49:47;;;;;;;87.57;37.47;;;;;;;10.78;100.00;100022.63;5035143;28;20060;-86
2022/03/11 08:52:14;;;;;;;87.80;36.78;;;;;;;10.56;100.00;100001.91;5044595;28;20143;-86
2022/03/11 08:54:41;;;;;;;84.28;38.58;;;;;;;11.21;100.00;100054.53;5051131;28;20049;-86
2022/03/11 08:57:08;;;;;;;85.25;34.42;;;;;;;11.69;100.00;100024.03;5045260;28;20053;-86
2022/03/11 08:59:35;;;;;;;74.25;34.08;;;;;;;11.80;100.00;100049.69;5033307;28;20053;-84
2022/03/11 09:02:02;;;;;;;84.50;35.80;;;;;;;11.85;100.00;100031.09;5036492;28;20068;-86
2022/03/11 09:04:30;;;;;;;92.90;37.35;;;;;;;11.41;100.00;100029.91;5031344;28;20052;-86
2022/03/11 09:06:57;;;;;;;87.63;35.47;;;;;;;11.37;100.00;100028.38;5031745;28;20049;-86
2022/03/11 09:09:29;;;;;;;73.68;32.33;;;;;;;11.15;100.00;100046.97;5048585;28;20088;-86
2022/03/11 09:12:00;;;;;;;89.90;34.33;;;;;;;11.53;100.00;100023.19;5042563;28;20044;-86
2022/03/11 09:14:26;;;;;;;81.90;31.95;;;;;;;11.71;100.00;100037.06;5051422;28;20400;-85
2022/03/11 09:16:53;;;;;;;77.05;30.75;;;;;;;11.57;100.00;100041.25;5046474;28;20080;-86
2022/03/11 09:19:21;;;;;;;75.53;30.58;;;;;;;11.74;100.00;100029.06;5046580;28;20458;-86
2022/03/11 09:21:47;;;;;;;78.40;31.52;;;;;;;11.26;100.00;100036.81;5039082;28;20803;-86
2022/03/11 09:24:15;;;;;;;74.43;29.55;;;;;;;11.38;100.00;100028.31;5039835;28;20448;-87
2022/03/11 09:26:44;;;;;;;73.90;31.45;;;;;;;11.16;100.00;100017.22;5040136;28;20057;-86
2022/03/11 09:29:19;;;;;;;69.10;29.33;;;;;;;11.43;100.00;100029.81;5038839;28;20052;-86
2022/03/11 09:31:46;;;;;;;70.70;31.77;;;;;;;11.37;100.00;100021.34;5040343;28;20048;-86
2022/03/11 09:34:13;;;;;;;64.97;30.13;;;;;;;10.57;100.00;100016.66;5054628;28;20051;-86
2022/03/11 09:36:44;;;;;;;77.40;30.80;;;;;;;10.87;100.00;100001.22;5044591;28;20049;-90
2022/03/11 09:39:11;;;;;;;74.35;30.35;;;;;;;11.36;100.00;100013.56;5050910;28;20056;-91
2022/03/11 09:41:40;;;;;;;71.18;28.85;;;;;;;11.52;100.00;99995.25;5050527;28;20049;-91
2022/03/11 09:44:08;;;;;;;86.15;32.13;;;;;;;11.36;100.00;99992.59;5051808;28;20052;-90
2022/03/11 09:46:35;;;;;;;81.75;32.30;;;;;;;10.83;100.00;99983.97;5042792;28;20049;-90
2022/03/11 09:49:03;;;;;;;71.13;30.50;;;;;;;10.94;100.00;100002.63;5046449;28;20049;-90
2022/03/11 09:51:33;;;;;;;80.13;32.60;;;;;;;10.76;100.00;99980.78;5043593;28;20109;-91
2022/03/11 09:54:01;;;;;;;79.82;31.52;;;;;;;10.95;100.00;99962.38;5031347;28;20139;-91
2022/03/11 09:56:29;;;;;;;68.18;28.92;;;;;;;11.52;100.00;100000.50;5031325;28;20559;-91
2022/03/11 09:58:56;;;;;;;79.55;31.75;;;;;;;11.14;100.00;99971.94;5031952;28;20463;-91
2022/03/11 10:01:22;;;;;;;80.25;30.20;;;;;;;10.52;100.00;100050.94;5037481;28;20045;-91
2022/03/11 10:03:50;;;;;;;73.28;30.25;;;;;;;11.10;100.00;99983.47;5051635;28;20076;-91
2022/03/11 10:06:35;;;;;;;77.97;31.42;;;;;;;11.07;100.00;99989.72;5045156;28;20063;-89
2022/03/11 10:09:02;;;;;;;83.40;31.02;;;;;;;10.97;100.00;99993.75;5030240;28;20057;-87
2022/03/11 10:11:29;;;;;;;81.55;34.15;;;;;;;11.00;100.00;99983.13;5047493;28;20467;-88
2022/03/11 10:14:09;;;;;;;75.07;31.17;;;;;;;11.17;100.00;99998.81;5049975;28;20084;-88
2022/03/11 10:16:36;;;;;;;70.30;30.33;;;;;;;11.49;100.00;99992.78;5042047;28;20053;-88
2022/03/11 10:19:09;;;;;;;78.70;31.23;;;;;;;11.13;100.00;99978.06;5045636;28;20052;-88
2022/03/11 10:21:45;;;;;;;74.18;30.85;;;;;;;11.24;100.00;99996.69;5037059;28;20414;-88
2022/03/11 10:24:19;;;;;;;83.68;31.95;;;;;;;11.70;100.00;99991.63;5036575;28;20087;-89
2022/03/11 10:26:52;;;;;;;70.82;27.23;;;;;;;11.41;100.00;99977.47;5040452;28;20399;-88
2022/03/11 10:29:31;;;;;;;87.45;30.73;;;;;;;11.03;100.00;99993.44;5046608;28;20060;-88
2022/03/11 10:31:59;;;;;;;75.78;30.70;;;;;;;11.19;100.00;99970.75;5041419;28;20041;-88
2022/03/11 10:34:34;;;;;;;78.70;30.40;;;;;;;11.58;100.00;99992.31;5049729;28;20061;-88
2022/03/11 10:37:01;;;;;;;80.72;28.48;;;;;;;11.91;100.00;99981.78;5038980;28;20124;-89
2022/03/11 10:39:39;;;;;;;70.80;30.30;;;;;;;11.48;100.00;99976.22;5029989;28;20050;-88
2022/03/11 10:42:20;;;;;;;68.95;27.27;;;;;;;10.89;100.00;99973.19;5042342;28;20478;-89
2022/03/11 10:45:00;;;;;;;78.80;28.58;;;;;;;10.95;100.00;99978.09;5050286;28;20049;-88
2022/03/11 10:47:39;;;;;;;71.32;28.20;;;;;;;11.09;100.00;99997.50;5050012;28;20076;-89
2022/03/11 10:50:07;;;;;;;73.43;29.17;;;;;;;11.12;100.00;99971.13;5049618;28;20055;-90
2022/03/11 10:52:42;;;;;;;72.13;27.65;;;;;;;11.40;100.00;99967.91;5034087;28;20049;-91
2022/03/11 10:55:33;;;;;;;79.22;26.92;;;;;;;11.59;100.00;99959.91;5032462;28;20056;-90
2022/03/11 10:58:04;;;;;;;74.25;28.15;;;;;;;11.81;100.00;99948.25;5049109;28;20063;-89
2022/03/11 11:00:33;;;;;;;67.20;24.42;;;;;;;11.83;100.00;99955.13;5054245;28;20145;-90
2022/03/11 11:03:06;;;;;;;72.28;26.73;;;;;;;11.32;100.00;99944.75;5053261;28;20053;-90
2022/03/11 11:05:33;;;;;;;65.22;24.35;;;;;;;11.11;100.00;99943.25;5053968;28;20048;-88
2022/03/11 11:08:03;;;;;;;66.07;22.23;;;;;;;11.82;100.00;99927.19;5035406;28;20056;-90